createdAt,value
2023-04-23T00:00:32.983Z,36.51
2023-04-23T00:03:01.033Z,36.56
2023-04-23T00:05:28.824Z,36.61
2023-04-23T00:07:56.327Z,36.64
2023-04-23T00:10:24.124Z,36.68
2023-04-23T00:12:51.693Z,36.72
2023-04-23T00:15:21.562Z,36.71
2023-04-23T00:17:49.097Z,36.74
2023-04-23T00:20:16.594Z,36.59
2023-04-23T00:22:43.960Z,36.78
2023-04-23T00:25:11.706Z,36.83
2023-04-23T00:27:39.085Z,36.87
2023-04-23T00:30:07.255Z,36.83
2023-04-23T00:32:35.052Z,36.83
2023-04-23T00:35:02.480Z,36.85
2023-04-23T00:37:30.827Z,36.93
2023-04-23T00:39:58.539Z,36.95
2023-04-23T00:42:26.953Z,36.94
2023-04-23T00:44:54.400Z,36.99
2023-04-23T00:47:22.205Z,37.02
2023-04-23T00:49:50.873Z,37.04
2023-04-23T00:52:18.289Z,37.08
2023-04-23T00:54:46.039Z,37.06
2023-04-23T00:57:13.470Z,37.05
2023-04-23T00:59:40.894Z,37.08
2023-04-23T01:02:08.684Z,37.08
2023-04-23T01:04:36.513Z,37.09
2023-04-23T01:07:04.612Z,37.15
2023-04-23T01:09:32.600Z,37.16
2023-04-23T01:12:00.023Z,37.18
2023-04-23T01:14:27.411Z,37.19
2023-04-23T01:16:56.304Z,37.21
2023-04-23T01:19:23.759Z,37.21
2023-04-23T01:21:51.358Z,37.21
2023-04-23T01:24:19.074Z,37.28
2023-04-23T01:26:46.836Z,37.33
2023-04-23T01:29:14.245Z,37.31
2023-04-23T01:31:41.912Z,37.30
2023-04-23T01:34:10.505Z,37.34
2023-04-23T01:36:37.925Z,37.36
2023-04-23T01:39:06.225Z,37.41
2023-04-23T01:41:33.952Z,37.45
2023-04-23T01:44:01.532Z,37.49
2023-04-23T01:46:29.237Z,37.49
2023-04-23T01:48:56.663Z,37.47
2023-04-23T01:51:25.725Z,37.47
2023-04-23T01:53:53.474Z,37.61
2023-04-23T01:56:21.470Z,37.67
2023-04-23T01:58:48.912Z,37.68
2023-04-23T02:01:16.651Z,37.69
2023-04-23T02:03:45.196Z,37.71
2023-04-23T02:06:14.242Z,37.68
2023-04-23T02:08:42.401Z,37.76
2023-04-23T02:11:10.180Z,37.78
2023-04-23T02:13:37.869Z,37.81
2023-04-23T02:16:05.843Z,37.86
2023-04-23T02:18:33.293Z,37.85
2023-04-23T02:21:01.960Z,37.90
2023-04-23T02:23:29.488Z,37.91
2023-04-23T02:25:57.231Z,37.91
2023-04-23T02:28:24.921Z,37.91
2023-04-23T02:30:52.368Z,37.92
2023-04-23T02:33:20.033Z,37.96
2023-04-23T02:35:47.784Z,37.98
2023-04-23T02:38:15.276Z,37.95
2023-04-23T02:40:43.762Z,37.97
2023-04-23T02:43:11.597Z,38.02
2023-04-23T02:45:39.051Z,38.03
2023-04-23T02:48:06.581Z,38.09
2023-04-23T02:50:35.171Z,38.11
2023-04-23T02:53:02.632Z,38.11
2023-04-23T02:55:32.005Z,38.14
2023-04-23T02:57:59.951Z,38.13
2023-04-23T03:00:27.621Z,38.13
2023-04-23T03:02:55.191Z,38.13
2023-04-23T03:05:23.111Z,38.09
2023-04-23T03:07:50.566Z,38.09
2023-04-23T03:10:17.999Z,38.14
2023-04-23T03:12:46.171Z,38.15
2023-04-23T03:15:13.792Z,38.19
2023-04-23T03:17:41.560Z,38.20
2023-04-23T03:20:11.531Z,38.21
2023-04-23T03:22:39.239Z,38.23
2023-04-23T03:25:07.132Z,38.23
2023-04-23T03:27:35.339Z,38.19
2023-04-23T03:30:03.278Z,38.18
2023-04-23T03:32:31.738Z,38.11
2023-04-23T03:34:59.522Z,38.21
2023-04-23T03:37:27.579Z,38.31
2023-04-23T03:39:55.017Z,38.31
2023-04-23T03:42:22.820Z,38.32
2023-04-23T03:44:50.590Z,38.31
2023-04-23T03:47:18.190Z,38.38
2023-04-23T03:49:46.047Z,38.36
2023-04-23T03:52:13.746Z,38.39
2023-04-23T03:54:42.469Z,38.40
2023-04-23T03:57:12.162Z,38.41
2023-04-23T03:59:39.781Z,38.41
2023-04-23T04:02:08.930Z,38.45
2023-04-23T04:04:37.107Z,38.44
2023-04-23T04:07:05.639Z,38.46
2023-04-23T04:09:33.088Z,38.51
2023-04-23T04:12:01.773Z,38.46
2023-04-23T04:14:29.206Z,38.58
2023-04-23T04:16:57.014Z,38.62
2023-04-23T04:19:24.804Z,38.63
2023-04-23T04:21:52.220Z,38.65
2023-04-23T04:24:19.699Z,38.63
2023-04-23T04:26:47.674Z,38.63
2023-04-23T04:29:15.087Z,38.64
2023-04-23T04:31:42.590Z,38.66
2023-04-23T04:34:10.547Z,38.64
2023-04-23T04:36:38.014Z,38.66
2023-04-23T04:39:05.505Z,38.71
2023-04-23T04:41:33.551Z,38.71
2023-04-23T04:44:01.073Z,38.68
2023-04-23T04:46:29.889Z,38.71
2023-04-23T04:48:57.609Z,38.67
2023-04-23T04:51:25.039Z,38.72
2023-04-23T04:53:52.528Z,38.71
2023-04-23T04:56:20.383Z,38.72
2023-04-23T04:58:48.180Z,38.71
2023-04-23T05:01:16.017Z,38.74
2023-04-23T05:03:44.337Z,38.76
2023-04-23T05:06:11.850Z,38.76
2023-04-23T05:08:39.301Z,38.76
2023-04-23T05:11:07.361Z,38.76
2023-04-23T05:13:34.752Z,38.73
2023-04-23T05:16:02.246Z,38.76
2023-04-23T05:18:30.058Z,38.78
2023-04-23T05:20:57.469Z,38.75
2023-04-23T05:23:25.032Z,38.78
2023-04-23T05:25:55.943Z,38.79
2023-04-23T05:28:23.321Z,38.78
2023-04-23T05:30:50.963Z,38.83
2023-04-23T05:33:18.695Z,38.79
2023-04-23T05:35:46.272Z,38.70
2023-04-23T05:38:13.684Z,38.66
2023-04-23T05:40:41.463Z,38.62
2023-04-23T05:43:08.830Z,38.58
2023-04-23T05:45:36.390Z,38.55
2023-04-23T05:48:04.225Z,38.55
2023-04-23T05:50:31.642Z,38.60
2023-04-23T05:52:59.093Z,38.62
2023-04-23T05:55:26.831Z,38.66
2023-04-23T05:57:54.254Z,38.68
2023-04-23T06:00:21.651Z,38.68
2023-04-23T06:02:49.518Z,38.69
2023-04-23T06:05:17.202Z,38.71
2023-04-23T06:07:44.810Z,38.73
2023-04-23T06:10:12.880Z,38.77
2023-04-23T06:12:42.031Z,38.83
2023-04-23T06:15:10.078Z,38.79
2023-04-23T06:17:38.098Z,38.88
2023-04-23T06:20:06.348Z,38.92
2023-04-23T06:22:33.771Z,38.96
2023-04-23T06:25:02.109Z,38.96
2023-04-23T06:27:29.643Z,38.96
2023-04-23T06:29:58.257Z,38.91
2023-04-23T06:32:25.986Z,38.90
2023-04-23T06:35:00.950Z,38.71
2023-04-23T06:37:31.777Z,38.60
2023-04-23T06:39:59.478Z,38.58
2023-04-23T06:42:26.961Z,38.58
2023-04-23T06:44:57.058Z,38.58
2023-04-23T06:47:24.520Z,38.69
2023-04-23T06:49:52.246Z,38.63
2023-04-23T06:52:19.934Z,38.50
2023-04-23T06:54:47.397Z,38.25
2023-04-23T06:57:14.847Z,38.08
2023-04-23T06:59:42.539Z,37.22
2023-04-23T07:02:10.288Z,35.92
2023-04-23T07:04:37.850Z,36.31
2023-04-23T07:07:06.217Z,36.73
2023-04-23T07:09:33.654Z,36.89
2023-04-23T07:12:02.269Z,36.86
2023-04-23T07:14:29.974Z,36.83
2023-04-23T07:16:57.409Z,36.77
2023-04-23T07:19:25.017Z,36.81
2023-04-23T07:21:53.418Z,36.83
2023-04-23T07:24:20.814Z,36.78
2023-04-23T07:26:48.235Z,36.70
2023-04-23T07:29:16.032Z,36.59
2023-04-23T07:31:43.468Z,36.63
2023-04-23T07:34:11.082Z,36.69
2023-04-23T07:36:38.885Z,36.54
2023-04-23T07:39:06.661Z,36.31
2023-04-23T07:41:34.222Z,36.40
2023-04-23T07:44:02.069Z,36.38
2023-04-23T07:46:29.570Z,36.31
2023-04-23T07:48:57.000Z,35.96
2023-04-23T07:51:26.740Z,36.11
2023-04-23T07:53:54.539Z,36.29
2023-04-23T07:56:22.579Z,36.29
2023-04-23T07:58:50.771Z,36.22
2023-04-23T08:01:18.184Z,35.95
2023-04-23T08:03:46.131Z,35.83
2023-04-23T08:06:13.726Z,36.09
2023-04-23T08:08:41.126Z,36.04
2023-04-23T08:11:08.842Z,35.92
2023-04-23T08:13:36.435Z,35.48
2023-04-23T08:16:03.902Z,35.42
2023-04-23T08:18:31.587Z,35.07
2023-04-23T08:20:59.550Z,35.26
2023-04-23T08:23:27.678Z,35.41
2023-04-23T08:25:55.501Z,35.13
2023-04-23T08:28:22.889Z,34.96
2023-04-23T08:30:50.414Z,34.82
2023-04-23T08:33:18.120Z,34.61
2023-04-23T08:35:46.653Z,34.63
2023-04-23T08:38:14.026Z,34.71
2023-04-23T08:40:42.419Z,34.84
2023-04-23T08:43:21.934Z,34.67
2023-04-23T08:45:49.750Z,34.54
2023-04-23T08:48:17.192Z,34.44
2023-04-23T08:50:44.768Z,34.52
2023-04-23T08:53:12.526Z,34.54
2023-04-23T08:55:40.045Z,34.59
2023-04-23T08:58:07.534Z,34.65
2023-04-23T09:00:35.510Z,34.77
2023-04-23T09:03:03.194Z,34.83
2023-04-23T09:05:31.061Z,34.90
2023-04-23T09:07:59.916Z,34.95
2023-04-23T09:10:27.377Z,34.25
2023-04-23T09:12:54.829Z,34.57
2023-04-23T09:15:22.501Z,34.45
2023-04-23T09:17:51.418Z,34.32
2023-04-23T09:20:18.876Z,34.03
2023-04-23T09:22:50.644Z,34.31
2023-04-23T09:25:19.374Z,34.11
2023-04-23T09:27:48.243Z,34.23
2023-04-23T09:30:15.859Z,34.29
2023-04-23T09:32:45.962Z,34.22
2023-04-23T09:35:15.350Z,34.26
2023-04-23T09:37:44.050Z,34.38
2023-04-23T09:40:13.120Z,34.23
2023-04-23T09:42:41.024Z,34.06
2023-04-23T09:45:10.951Z,34.01
2023-04-23T09:47:39.569Z,33.97
2023-04-23T09:50:10.413Z,33.73
2023-04-23T09:52:41.201Z,32.44
2023-04-23T09:55:09.512Z,32.48
2023-04-23T09:57:46.656Z,32.91
2023-04-23T10:00:23.103Z,32.83
2023-04-23T10:02:51.443Z,32.50
2023-04-23T10:07:50.959Z,31.90
2023-04-23T10:10:19.526Z,32.01
2023-04-23T10:12:54.708Z,32.10
2023-04-23T10:15:26.663Z,32.20
2023-04-23T10:17:54.606Z,32.35
2023-04-23T10:20:22.753Z,32.46
2023-04-23T10:22:50.495Z,32.38
2023-04-23T10:25:17.913Z,32.31
2023-04-23T10:27:52.901Z,32.00
2023-04-23T10:30:22.276Z,31.74
2023-04-23T10:32:50.147Z,31.76
2023-04-23T10:35:17.712Z,32.11
2023-04-23T10:37:47.058Z,32.30
2023-04-23T10:40:15.448Z,32.47
2023-04-23T10:42:43.561Z,31.74
2023-04-23T10:45:24.085Z,31.52
2023-04-23T10:47:54.315Z,30.92
2023-04-23T10:50:24.120Z,31.19
2023-04-23T10:52:53.651Z,30.47
2023-04-23T10:55:22.774Z,30.61
2023-04-23T10:58:07.418Z,30.70
2023-04-23T11:00:40.954Z,30.92
2023-04-23T11:03:44.875Z,31.25
2023-04-23T11:06:19.478Z,31.43
2023-04-23T11:08:57.048Z,31.42
2023-04-23T11:11:40.308Z,31.34
2023-04-23T11:14:14.313Z,31.45
2023-04-23T11:16:41.923Z,31.50
2023-04-23T11:19:12.370Z,31.52
2023-04-23T11:21:58.788Z,31.63
2023-04-23T11:24:42.111Z,31.83
2023-04-23T11:27:11.174Z,31.95
2023-04-23T11:29:40.374Z,32.10
2023-04-23T11:32:12.828Z,32.12
2023-04-23T11:34:41.944Z,32.18
2023-04-23T11:37:13.261Z,32.30
2023-04-23T11:39:42.076Z,32.39
2023-04-23T11:42:16.398Z,32.49
2023-04-23T11:44:45.149Z,32.69
2023-04-23T11:47:13.938Z,32.96
2023-04-23T11:49:43.186Z,33.08
2023-04-23T11:52:11.425Z,33.15
2023-04-23T11:54:40.844Z,33.12
2023-04-23T11:57:08.544Z,33.13
2023-04-23T11:59:36.262Z,33.13
2023-04-23T12:02:03.750Z,33.21
2023-04-23T12:04:31.950Z,33.23
2023-04-23T12:06:59.996Z,33.22
2023-04-23T12:09:28.803Z,33.34
2023-04-23T12:11:58.167Z,33.38
2023-04-23T12:14:30.097Z,33.54
2023-04-23T12:16:58.284Z,33.66
2023-04-23T12:19:27.402Z,33.77
2023-04-23T12:22:00.978Z,33.98
2023-04-23T12:24:30.483Z,34.15
2023-04-23T12:27:00.615Z,34.25
2023-04-23T12:29:30.250Z,34.36
2023-04-23T12:31:58.950Z,34.47
2023-04-23T12:34:26.357Z,34.54
2023-04-23T12:36:55.112Z,34.68
2023-04-23T12:39:30.722Z,34.76
2023-04-23T12:42:05.674Z,34.80
2023-04-23T12:44:37.311Z,34.93
2023-04-23T12:47:07.331Z,34.99
2023-04-23T12:49:36.722Z,35.09
2023-04-23T12:52:06.268Z,35.18
2023-04-23T12:54:37.103Z,33.00
2023-04-23T12:57:05.890Z,32.07
2023-04-23T12:59:33.543Z,32.51
2023-04-23T13:02:04.347Z,32.74
2023-04-23T13:04:32.952Z,33.05
2023-04-23T13:07:00.537Z,33.25
2023-04-23T13:09:28.665Z,33.37
2023-04-23T13:11:56.479Z,33.56
2023-04-23T13:14:24.032Z,33.79
2023-04-23T13:16:52.717Z,33.89
2023-04-23T13:19:20.881Z,33.94
2023-04-23T13:21:48.500Z,34.03
2023-04-23T13:24:16.182Z,34.21
2023-04-23T13:26:43.854Z,34.44
2023-04-23T13:29:11.530Z,34.61
2023-04-23T13:31:39.006Z,34.52
2023-04-23T13:34:06.781Z,34.39
2023-04-23T13:36:34.251Z,34.33
2023-04-23T13:39:01.749Z,34.42
2023-04-23T13:41:29.438Z,34.48
2023-04-23T13:43:56.891Z,34.65
2023-04-23T13:46:24.313Z,34.83
2023-04-23T13:48:53.501Z,35.03
2023-04-23T13:51:34.040Z,35.05
2023-04-23T13:54:03.510Z,35.09
2023-04-23T13:56:31.165Z,35.09
2023-04-23T13:59:18.840Z,35.26
2023-04-23T14:01:50.195Z,35.34
2023-04-23T14:04:18.600Z,35.23
2023-04-23T14:06:46.188Z,35.00
2023-04-23T14:09:13.678Z,33.95
2023-04-23T14:11:41.669Z,34.05
2023-04-23T14:14:09.186Z,34.17
2023-04-23T14:16:36.670Z,34.26
2023-04-23T14:19:04.457Z,34.45
2023-04-23T14:21:31.942Z,34.63
2023-04-23T14:24:08.556Z,34.90
2023-04-23T14:26:48.154Z,35.14
2023-04-23T14:29:28.137Z,35.22
2023-04-23T14:31:56.111Z,35.23
2023-04-23T14:34:23.548Z,35.22
2023-04-23T14:36:52.975Z,35.21
2023-04-23T14:39:25.827Z,35.22
2023-04-23T14:41:53.436Z,35.20
2023-04-23T14:44:23.446Z,35.22
2023-04-23T14:46:51.291Z,35.21
2023-04-23T14:49:20.719Z,35.24
2023-04-23T14:51:50.905Z,35.35
2023-04-23T14:54:18.452Z,35.48
2023-04-23T14:56:46.054Z,35.58
2023-04-23T14:59:13.960Z,35.78
2023-04-23T15:01:41.518Z,35.82
2023-04-23T15:04:11.193Z,35.93
2023-04-23T15:06:40.495Z,36.05
2023-04-23T15:09:07.961Z,36.09
2023-04-23T15:11:35.520Z,36.14
2023-04-23T15:14:25.344Z,36.11
2023-04-23T15:16:52.921Z,36.20
2023-04-23T15:19:20.710Z,36.28
2023-04-23T15:21:48.250Z,36.33
2023-04-23T15:24:17.032Z,36.34
2023-04-23T15:26:46.014Z,36.41
2023-04-23T15:29:14.106Z,36.46
2023-04-23T15:31:41.954Z,36.50
2023-04-23T15:34:11.595Z,36.57
2023-04-23T15:36:39.025Z,36.53
2023-04-23T15:39:07.442Z,36.54
2023-04-23T15:41:39.319Z,36.58
2023-04-23T15:44:09.414Z,36.58
2023-04-23T15:46:37.159Z,36.53
2023-04-23T15:49:05.658Z,36.47
2023-04-23T15:51:33.087Z,36.47
2023-04-23T15:54:02.242Z,36.45
2023-04-23T15:56:29.757Z,36.46
2023-04-23T15:58:57.132Z,36.48
2023-04-23T16:01:27.192Z,36.60
2023-04-23T16:04:09.397Z,36.72
2023-04-23T16:06:38.363Z,36.78
2023-04-23T16:09:09.214Z,36.80
2023-04-23T16:11:37.481Z,36.79
2023-04-23T16:14:05.230Z,36.77
2023-04-23T16:16:33.158Z,36.74
2023-04-23T16:19:01.966Z,36.75
2023-04-23T16:21:29.423Z,36.64
2023-04-23T16:23:57.876Z,36.64
2023-04-23T16:26:25.712Z,36.55
2023-04-23T16:29:05.555Z,36.53
2023-04-23T16:31:41.807Z,36.50
2023-04-23T16:34:09.189Z,36.53
2023-04-23T16:36:36.813Z,36.44
2023-04-23T16:39:05.113Z,36.34
2023-04-23T16:41:33.028Z,36.31
2023-04-23T16:44:00.607Z,36.31
2023-04-23T16:46:30.932Z,36.37
2023-04-23T16:48:59.198Z,36.51
2023-04-23T16:51:28.805Z,36.64
2023-04-23T16:53:56.969Z,36.76
2023-04-23T16:56:26.383Z,36.85
2023-04-23T16:58:54.131Z,37.01
2023-04-23T17:01:22.137Z,37.09
2023-04-23T17:03:49.654Z,37.24
2023-04-23T17:06:24.868Z,37.30
2023-04-23T17:08:52.958Z,37.33
2023-04-23T17:11:20.551Z,37.29
2023-04-23T17:13:49.331Z,37.33
2023-04-23T17:16:17.876Z,37.42
2023-04-23T17:18:46.486Z,37.46
2023-04-23T17:21:15.644Z,37.50
2023-04-23T17:23:44.914Z,37.55
2023-04-23T17:26:13.086Z,37.58
2023-04-23T17:28:41.499Z,37.65
2023-04-23T17:31:10.176Z,37.71
2023-04-23T17:33:39.257Z,37.74
2023-04-23T17:36:07.312Z,37.93
2023-04-23T17:38:37.039Z,37.94
2023-04-23T17:41:04.786Z,37.86
2023-04-23T17:43:35.163Z,37.83
2023-04-23T17:46:04.426Z,37.86
2023-04-23T17:48:33.181Z,37.84
2023-04-23T17:51:02.319Z,37.89
2023-04-23T17:53:31.613Z,37.98
2023-04-23T17:56:03.372Z,38.04
2023-04-23T17:58:31.874Z,38.13
2023-04-23T18:01:00.195Z,38.14
2023-04-23T18:03:30.571Z,38.17
2023-04-23T18:05:58.908Z,38.26
2023-04-23T18:08:29.215Z,38.26
2023-04-23T18:10:58.134Z,38.24
2023-04-23T18:13:27.586Z,38.21
2023-04-23T18:15:55.971Z,38.19
2023-04-23T18:18:24.430Z,38.14
2023-04-23T18:20:52.504Z,38.09
2023-04-23T18:23:24.330Z,38.10
2023-04-23T18:25:52.539Z,38.07
2023-04-23T18:28:20.370Z,38.07
2023-04-23T18:30:48.204Z,38.03
2023-04-23T18:33:19.690Z,38.01
2023-04-23T18:35:48.271Z,37.96
2023-04-23T18:38:30.844Z,37.92
2023-04-23T18:41:04.669Z,37.90
2023-04-23T18:43:33.438Z,37.85
2023-04-23T18:46:03.033Z,37.84
2023-04-23T18:48:34.354Z,37.86
2023-04-23T18:51:21.535Z,37.85
2023-04-23T18:53:49.563Z,37.84
2023-04-23T18:56:18.387Z,37.83
2023-04-23T18:58:46.851Z,37.82
2023-04-23T19:01:14.807Z,37.80
2023-04-23T19:03:58.537Z,37.80
2023-04-23T19:06:27.374Z,37.78
2023-04-23T19:08:56.180Z,37.76
2023-04-23T19:11:24.042Z,37.73
2023-04-23T19:13:53.607Z,37.74
2023-04-23T19:16:21.990Z,37.74
2023-04-23T19:18:50.702Z,37.70
2023-04-23T19:21:20.051Z,37.69
2023-04-23T19:23:48.168Z,37.71
2023-04-23T19:26:19.819Z,37.66
2023-04-23T19:28:48.357Z,37.65
2023-04-23T19:31:17.465Z,37.60
2023-04-23T19:33:47.997Z,37.60
2023-04-23T19:36:16.271Z,37.61
2023-04-23T19:38:44.742Z,37.64
2023-04-23T19:41:12.657Z,37.62
2023-04-23T19:43:42.535Z,37.62
2023-04-23T19:46:10.703Z,37.62
2023-04-23T19:48:38.859Z,37.61
2023-04-23T19:51:08.426Z,37.63
2023-04-23T19:53:36.685Z,37.41
2023-04-23T19:56:04.838Z,37.41
2023-04-23T19:58:33.101Z,37.25
2023-04-23T20:01:02.304Z,37.19
2023-04-23T20:03:32.172Z,37.07
2023-04-23T20:05:59.941Z,37.04
2023-04-23T20:08:30.141Z,37.00
2023-04-23T20:10:58.112Z,36.99
2023-04-23T20:13:25.849Z,37.00
2023-04-23T20:15:53.751Z,37.00
2023-04-23T20:18:22.460Z,36.99
2023-04-23T20:20:50.288Z,36.98
2023-04-23T20:23:17.876Z,36.96
2023-04-23T20:25:45.646Z,36.96
2023-04-23T20:28:13.177Z,36.99
2023-04-23T20:30:41.339Z,37.00
2023-04-23T20:33:10.826Z,37.07
2023-04-23T20:35:39.639Z,37.07
2023-04-23T20:38:08.026Z,37.07
2023-04-23T20:40:36.154Z,37.16
2023-04-23T20:43:05.653Z,37.17
2023-04-23T20:45:34.797Z,37.19
2023-04-23T20:48:03.778Z,37.18
2023-04-23T20:50:31.307Z,37.18
2023-04-23T20:52:58.744Z,37.24
2023-04-23T20:55:26.407Z,37.22
2023-04-23T20:57:53.808Z,37.24
2023-04-23T21:00:22.362Z,37.26
2023-04-23T21:02:50.250Z,37.26
2023-04-23T21:05:17.787Z,37.29
2023-04-23T21:07:45.387Z,37.30
2023-04-23T21:10:15.216Z,37.41
2023-04-23T21:12:43.432Z,37.52
2023-04-23T21:15:12.671Z,37.56
2023-04-23T21:17:40.378Z,37.56
2023-04-23T21:20:09.520Z,37.58
2023-04-23T21:22:36.872Z,37.60
2023-04-23T21:25:04.791Z,37.65
2023-04-23T21:27:32.178Z,37.69
2023-04-23T21:30:00.559Z,37.70
2023-04-23T21:32:28.309Z,37.69
2023-04-23T21:34:55.815Z,37.68
2023-04-23T21:37:23.249Z,37.71
2023-04-23T21:39:50.912Z,37.69
2023-04-23T21:42:18.409Z,37.69
2023-04-23T21:44:46.113Z,37.68
2023-04-23T21:47:13.822Z,37.68
2023-04-23T21:49:41.552Z,37.73
2023-04-23T21:52:09.177Z,37.76
2023-04-23T21:54:36.867Z,37.78
2023-04-23T21:57:04.290Z,37.77
2023-04-23T21:59:31.710Z,37.74
2023-04-23T22:01:59.410Z,37.71
2023-04-23T22:04:29.269Z,37.68
2023-04-23T22:07:02.391Z,37.65
2023-04-23T22:09:30.260Z,37.78
2023-04-23T22:14:28.382Z,37.82
2023-04-23T22:16:58.608Z,37.80
2023-04-23T22:19:26.186Z,37.75
2023-04-23T22:21:54.690Z,37.72
2023-04-23T22:24:22.889Z,37.71
2023-04-23T22:26:50.279Z,37.76
2023-04-23T22:29:17.662Z,37.79
2023-04-23T22:31:45.411Z,37.84
2023-04-23T22:34:12.845Z,37.82
2023-04-23T22:36:43.094Z,37.87
2023-04-23T22:39:10.824Z,37.82
2023-04-23T22:41:40.241Z,37.77
2023-04-23T22:44:09.279Z,37.76
2023-04-23T22:46:37.341Z,37.72
2023-04-23T22:49:07.874Z,37.74
2023-04-23T22:51:35.293Z,37.98
2023-04-23T22:54:02.979Z,38.05
2023-04-23T22:56:30.543Z,38.11
2023-04-23T22:58:57.997Z,38.17
2023-04-23T23:01:26.431Z,38.20
2023-04-23T23:03:54.264Z,38.21
2023-04-23T23:06:22.089Z,38.23
2023-04-23T23:08:49.860Z,38.25
2023-04-23T23:11:17.390Z,38.28
2023-04-23T23:13:45.396Z,38.24
2023-04-23T23:16:13.304Z,38.20
2023-04-23T23:18:40.694Z,38.20
2023-04-23T23:21:08.084Z,38.12
2023-04-23T23:23:36.497Z,38.12
2023-04-23T23:26:03.955Z,38.11
2023-04-23T23:28:31.339Z,38.06
2023-04-23T23:30:59.393Z,38.01
2023-04-23T23:33:27.182Z,38.00
2023-04-23T23:35:55.405Z,37.98
2023-04-23T23:38:23.144Z,37.95
2023-04-23T23:40:50.566Z,37.95
2023-04-23T23:43:17.978Z,37.96
2023-04-23T23:45:45.861Z,37.98
2023-04-23T23:48:13.332Z,38.17
2023-04-23T23:50:40.719Z,38.25
2023-04-23T23:53:08.457Z,38.27
2023-04-23T23:55:37.749Z,38.29
2023-04-23T23:58:05.142Z,38.20
